sensor_id;sensor_type;location;lat;lon;timestamp;P1;durP1;ratioP1;P2;durP2;ratioP2
41633;SDS011;37274;51.150;4.808;2022-07-11T00:00:57;2.45;;;0.73;;
41633;SDS011;37274;51.150;4.808;2022-07-11T00:03:24;1.27;;;0.70;;
41633;SDS011;37274;51.150;4.808;2022-07-11T00:05:51;4.65;;;1.25;;
41633;SDS011;37274;51.150;4.808;2022-07-11T00:08:18;0.80;;;0.50;;
41633;SDS011;37274;51.150;4.808;2022-07-11T00:10:44;1.05;;;0.90;;
41633;SDS011;37274;51.150;4.808;2022-07-11T00:13:12;2.00;;;0.60;;
41633;SDS011;37274;51.150;4.808;2022-07-11T00:15:39;0.75;;;0.60;;
41633;SDS011;37274;51.150;4.808;2022-07-11T00:18:06;0.75;;;0.50;;
41633;SDS011;37274;51.150;4.808;2022-07-11T00:20:34;0.68;;;0.50;;
41633;SDS011;37274;51.150;4.808;2022-07-11T00:23:01;1.35;;;0.90;;
41633;SDS011;37274;51.150;4.808;2022-07-11T00:25:27;1.92;;;0.80;;
41633;SDS011;37274;51.150;4.808;2022-07-11T00:27:54;0.50;;;0.50;;
41633;SDS011;37274;51.150;4.808;2022-07-11T00:30:21;1.40;;;0.70;;
41633;SDS011;37274;51.150;4.808;2022-07-11T00:32:48;0.63;;;0.63;;
41633;SDS011;37274;51.150;4.808;2022-07-11T00:35:15;1.27;;;0.70;;
41633;SDS011;37274;51.150;4.808;2022-07-11T00:37:41;0.68;;;0.68;;
41633;SDS011;37274;51.150;4.808;2022-07-11T00:40:08;1.33;;;0.80;;
41633;SDS011;37274;51.150;4.808;2022-07-11T00:42:35;1.30;;;0.70;;
41633;SDS011;37274;51.150;4.808;2022-07-11T00:45:02;1.25;;;0.73;;
41633;SDS011;37274;51.150;4.808;2022-07-11T00:47:29;1.67;;;1.15;;
41633;SDS011;37274;51.150;4.808;2022-07-11T00:49:56;1.02;;;0.70;;
41633;SDS011;37274;51.150;4.808;2022-07-11T00:52:22;0.60;;;0.43;;
41633;SDS011;37274;51.150;4.808;2022-07-11T00:54:49;0.65;;;0.65;;
41633;SDS011;37274;51.150;4.808;2022-07-11T00:57:16;0.70;;;0.60;;
41633;SDS011;37274;51.150;4.808;2022-07-11T00:59:43;2.22;;;0.50;;
41633;SDS011;37274;51.150;4.808;2022-07-11T01:02:10;2.03;;;0.57;;
41633;SDS011;37274;51.150;4.808;2022-07-11T01:04:37;1.00;;;0.57;;
41633;SDS011;37274;51.150;4.808;2022-07-11T01:07:04;2.30;;;0.75;;
41633;SDS011;37274;51.150;4.808;2022-07-11T01:09:31;0.70;;;0.45;;
41633;SDS011;37274;51.150;4.808;2022-07-11T01:11:58;2.28;;;0.50;;
41633;SDS011;37274;51.150;4.808;2022-07-11T01:14:25;0.68;;;0.65;;
41633;SDS011;37274;51.150;4.808;2022-07-11T01:16:51;0.80;;;0.50;;
41633;SDS011;37274;51.150;4.808;2022-07-11T01:19:18;0.70;;;0.70;;
41633;SDS011;37274;51.150;4.808;2022-07-11T01:21:48;1.05;;;0.80;;
41633;SDS011;37274;51.150;4.808;2022-07-11T01:24:16;0.40;;;0.40;;
41633;SDS011;37274;51.150;4.808;2022-07-11T01:26:48;0.60;;;0.60;;
41633;SDS011;37274;51.150;4.808;2022-07-11T01:29:17;0.73;;;0.70;;
41633;SDS011;37274;51.150;4.808;2022-07-11T01:31:44;1.30;;;0.73;;
41633;SDS011;37274;51.150;4.808;2022-07-11T01:34:11;0.70;;;0.60;;
41633;SDS011;37274;51.150;4.808;2022-07-11T01:36:38;1.30;;;0.65;;
41633;SDS011;37274;51.150;4.808;2022-07-11T01:39:05;1.23;;;0.70;;
41633;SDS011;37274;51.150;4.808;2022-07-11T01:41:32;1.20;;;0.50;;
41633;SDS011;37274;51.150;4.808;2022-07-11T01:43:59;1.77;;;0.77;;
41633;SDS011;37274;51.150;4.808;2022-07-11T01:46:26;0.80;;;0.70;;
41633;SDS011;37274;51.150;4.808;2022-07-11T01:48:53;0.60;;;0.55;;
41633;SDS011;37274;51.150;4.808;2022-07-11T01:51:19;0.70;;;0.70;;
41633;SDS011;37274;51.150;4.808;2022-07-11T01:53:49;0.75;;;0.60;;
41633;SDS011;37274;51.150;4.808;2022-07-11T01:56:15;0.45;;;0.45;;
41633;SDS011;37274;51.150;4.808;2022-07-11T01:58:46;0.57;;;0.57;;
41633;SDS011;37274;51.150;4.808;2022-07-11T02:01:13;0.75;;;0.75;;
41633;SDS011;37274;51.150;4.808;2022-07-11T02:03:40;0.63;;;0.50;;
41633;SDS011;37274;51.150;4.808;2022-07-11T02:06:07;0.70;;;0.60;;
41633;SDS011;37274;51.150;4.808;2022-07-11T02:08:34;0.95;;;0.52;;
41633;SDS011;37274;51.150;4.808;2022-07-11T02:11:01;1.10;;;0.60;;
41633;SDS011;37274;51.150;4.808;2022-07-11T02:13:28;0.85;;;0.80;;
41633;SDS011;37274;51.150;4.808;2022-07-11T02:15:55;0.68;;;0.63;;
41633;SDS011;37274;51.150;4.808;2022-07-11T02:18:21;0.95;;;0.47;;
41633;SDS011;37274;51.150;4.808;2022-07-11T02:20:48;0.82;;;0.55;;
41633;SDS011;37274;51.150;4.808;2022-07-11T02:23:15;0.70;;;0.70;;
41633;SDS011;37274;51.150;4.808;2022-07-11T02:25:43;0.95;;;0.60;;
41633;SDS011;37274;51.150;4.808;2022-07-11T02:28:10;0.60;;;0.60;;
41633;SDS011;37274;51.150;4.808;2022-07-11T02:30:38;1.77;;;0.60;;
41633;SDS011;37274;51.150;4.808;2022-07-11T02:33:06;0.75;;;0.75;;
41633;SDS011;37274;51.150;4.808;2022-07-11T02:35:34;1.42;;;0.68;;
41633;SDS011;37274;51.150;4.808;2022-07-11T02:38:01;2.40;;;1.00;;
41633;SDS011;37274;51.150;4.808;2022-07-11T02:40:28;1.13;;;0.90;;
41633;SDS011;37274;51.150;4.808;2022-07-11T02:42:55;1.65;;;0.75;;
41633;SDS011;37274;51.150;4.808;2022-07-11T02:45:22;0.93;;;0.57;;
41633;SDS011;37274;51.150;4.808;2022-07-11T02:47:49;3.03;;;0.90;;
41633;SDS011;37274;51.150;4.808;2022-07-11T02:50:16;0.63;;;0.63;;
41633;SDS011;37274;51.150;4.808;2022-07-11T02:52:43;1.20;;;0.80;;
41633;SDS011;37274;51.150;4.808;2022-07-11T02:55:11;1.17;;;1.08;;
41633;SDS011;37274;51.150;4.808;2022-07-11T02:57:38;1.10;;;0.90;;
41633;SDS011;37274;51.150;4.808;2022-07-11T03:00:06;1.58;;;1.20;;
41633;SDS011;37274;51.150;4.808;2022-07-11T03:02:35;1.38;;;1.13;;
41633;SDS011;37274;51.150;4.808;2022-07-11T03:05:02;1.35;;;1.00;;
41633;SDS011;37274;51.150;4.808;2022-07-11T03:07:30;2.90;;;1.13;;
41633;SDS011;37274;51.150;4.808;2022-07-11T03:09:57;2.10;;;1.30;;
41633;SDS011;37274;51.150;4.808;2022-07-11T03:12:24;1.33;;;1.13;;
41633;SDS011;37274;51.150;4.808;2022-07-11T03:14:51;1.60;;;1.50;;
41633;SDS011;37274;51.150;4.808;2022-07-11T03:17:18;3.42;;;1.80;;
41633;SDS011;37274;51.150;4.808;2022-07-11T03:19:45;2.05;;;1.60;;
41633;SDS011;37274;51.150;4.808;2022-07-11T03:22:16;2.90;;;1.55;;
41633;SDS011;37274;51.150;4.808;2022-07-11T03:24:43;1.75;;;1.50;;
41633;SDS011;37274;51.150;4.808;2022-07-11T03:27:10;1.85;;;1.00;;
41633;SDS011;37274;51.150;4.808;2022-07-11T03:29:38;1.98;;;1.20;;
41633;SDS011;37274;51.150;4.808;2022-07-11T03:32:06;1.58;;;1.15;;
41633;SDS011;37274;51.150;4.808;2022-07-11T03:34:33;6.63;;;1.67;;
41633;SDS011;37274;51.150;4.808;2022-07-11T03:37:00;2.00;;;1.33;;
41633;SDS011;37274;51.150;4.808;2022-07-11T03:39:27;2.97;;;1.52;;
41633;SDS011;37274;51.150;4.808;2022-07-11T03:41:54;1.23;;;1.13;;
41633;SDS011;37274;51.150;4.808;2022-07-11T03:44:21;2.50;;;1.52;;
41633;SDS011;37274;51.150;4.808;2022-07-11T03:46:50;2.30;;;1.55;;
41633;SDS011;37274;51.150;4.808;2022-07-11T03:49:17;1.75;;;1.27;;
41633;SDS011;37274;51.150;4.808;2022-07-11T03:51:44;1.70;;;1.42;;
41633;SDS011;37274;51.150;4.808;2022-07-11T03:54:11;3.05;;;1.10;;
41633;SDS011;37274;51.150;4.808;2022-07-11T03:56:37;1.95;;;1.13;;
41633;SDS011;37274;51.150;4.808;2022-07-11T03:59:04;3.08;;;1.23;;
41633;SDS011;37274;51.150;4.808;2022-07-11T04:01:31;2.33;;;1.40;;
41633;SDS011;37274;51.150;4.808;2022-07-11T04:03:58;1.95;;;1.15;;
41633;SDS011;37274;51.150;4.808;2022-07-11T04:06:25;3.30;;;1.40;;
41633;SDS011;37274;51.150;4.808;2022-07-11T04:08:52;2.10;;;1.30;;
41633;SDS011;37274;51.150;4.808;2022-07-11T04:11:19;2.45;;;1.25;;
41633;SDS011;37274;51.150;4.808;2022-07-11T04:13:46;2.42;;;1.35;;
41633;SDS011;37274;51.150;4.808;2022-07-11T04:16:13;4.45;;;1.48;;
41633;SDS011;37274;51.150;4.808;2022-07-11T04:18:40;2.40;;;1.45;;
41633;SDS011;37274;51.150;4.808;2022-07-11T04:21:07;3.45;;;1.80;;
41633;SDS011;37274;51.150;4.808;2022-07-11T04:23:35;1.25;;;1.15;;
41633;SDS011;37274;51.150;4.808;2022-07-11T04:26:02;3.42;;;1.50;;
41633;SDS011;37274;51.150;4.808;2022-07-11T04:28:29;1.80;;;1.35;;
41633;SDS011;37274;51.150;4.808;2022-07-11T04:30:57;2.17;;;1.67;;
41633;SDS011;37274;51.150;4.808;2022-07-11T04:33:24;2.85;;;1.80;;
41633;SDS011;37274;51.150;4.808;2022-07-11T04:35:51;2.55;;;1.42;;
41633;SDS011;37274;51.150;4.808;2022-07-11T04:38:17;1.92;;;1.15;;
41633;SDS011;37274;51.150;4.808;2022-07-11T04:40:48;3.25;;;1.45;;
41633;SDS011;37274;51.150;4.808;2022-07-11T04:43:15;2.47;;;1.55;;
41633;SDS011;37274;51.150;4.808;2022-07-11T04:45:42;1.50;;;1.13;;
41633;SDS011;37274;51.150;4.808;2022-07-11T04:48:10;1.98;;;1.67;;
41633;SDS011;37274;51.150;4.808;2022-07-11T04:50:37;2.67;;;1.40;;
41633;SDS011;37274;51.150;4.808;2022-07-11T04:53:03;1.88;;;1.05;;
41633;SDS011;37274;51.150;4.808;2022-07-11T04:55:30;1.50;;;1.20;;
41633;SDS011;37274;51.150;4.808;2022-07-11T04:57:57;1.55;;;1.10;;
41633;SDS011;37274;51.150;4.808;2022-07-11T05:00:24;1.52;;;1.30;;
41633;SDS011;37274;51.150;4.808;2022-07-11T05:02:51;1.67;;;1.10;;
41633;SDS011;37274;51.150;4.808;2022-07-11T05:05:18;2.25;;;1.02;;
41633;SDS011;37274;51.150;4.808;2022-07-11T05:07:46;2.35;;;1.48;;
41633;SDS011;37274;51.150;4.808;2022-07-11T05:10:13;1.30;;;1.00;;
41633;SDS011;37274;51.150;4.808;2022-07-11T05:12:40;1.75;;;1.33;;
41633;SDS011;37274;51.150;4.808;2022-07-11T05:15:07;1.90;;;1.25;;
41633;SDS011;37274;51.150;4.808;2022-07-11T05:17:34;1.30;;;1.20;;
41633;SDS011;37274;51.150;4.808;2022-07-11T05:20:02;1.98;;;1.00;;
41633;SDS011;37274;51.150;4.808;2022-07-11T05:22:29;2.00;;;0.90;;
41633;SDS011;37274;51.150;4.808;2022-07-11T05:24:56;4.63;;;1.55;;
41633;SDS011;37274;51.150;4.808;2022-07-11T05:27:22;1.50;;;1.23;;
41633;SDS011;37274;51.150;4.808;2022-07-11T05:29:49;1.58;;;1.00;;
41633;SDS011;37274;51.150;4.808;2022-07-11T05:32:16;3.25;;;1.27;;
41633;SDS011;37274;51.150;4.808;2022-07-11T05:34:43;2.38;;;1.20;;
41633;SDS011;37274;51.150;4.808;2022-07-11T05:37:10;2.45;;;1.20;;
41633;SDS011;37274;51.150;4.808;2022-07-11T05:39:36;2.40;;;1.13;;
41633;SDS011;37274;51.150;4.808;2022-07-11T05:42:03;1.60;;;1.17;;
41633;SDS011;37274;51.150;4.808;2022-07-11T05:44:30;4.03;;;0.85;;
41633;SDS011;37274;51.150;4.808;2022-07-11T05:47:00;2.80;;;1.42;;
41633;SDS011;37274;51.150;4.808;2022-07-11T05:49:30;3.97;;;2.92;;
41633;SDS011;37274;51.150;4.808;2022-07-11T05:51:57;9.55;;;4.50;;
41633;SDS011;37274;51.150;4.808;2022-07-11T05:54:24;14.45;;;5.47;;
41633;SDS011;37274;51.150;4.808;2022-07-11T05:56:50;9.25;;;5.22;;
41633;SDS011;37274;51.150;4.808;2022-07-11T05:59:17;9.95;;;5.10;;
41633;SDS011;37274;51.150;4.808;2022-07-11T06:01:44;6.57;;;3.83;;
41633;SDS011;37274;51.150;4.808;2022-07-11T06:04:11;7.72;;;3.30;;
41633;SDS011;37274;51.150;4.808;2022-07-11T06:06:39;5.13;;;3.35;;
41633;SDS011;37274;51.150;4.808;2022-07-11T06:09:06;5.10;;;3.00;;
41633;SDS011;37274;51.150;4.808;2022-07-11T06:11:33;5.45;;;2.60;;
41633;SDS011;37274;51.150;4.808;2022-07-11T06:13:59;7.40;;;2.85;;
41633;SDS011;37274;51.150;4.808;2022-07-11T06:16:26;5.45;;;2.63;;
41633;SDS011;37274;51.150;4.808;2022-07-11T06:18:54;6.00;;;2.83;;
41633;SDS011;37274;51.150;4.808;2022-07-11T06:21:20;4.13;;;2.15;;
41633;SDS011;37274;51.150;4.808;2022-07-11T06:23:48;6.32;;;2.08;;
41633;SDS011;37274;51.150;4.808;2022-07-11T06:26:15;4.15;;;2.13;;
41633;SDS011;37274;51.150;4.808;2022-07-11T06:28:42;4.57;;;2.05;;
41633;SDS011;37274;51.150;4.808;2022-07-11T06:31:09;2.95;;;2.30;;
41633;SDS011;37274;51.150;4.808;2022-07-11T06:33:36;3.10;;;2.08;;
41633;SDS011;37274;51.150;4.808;2022-07-11T06:36:03;4.80;;;2.20;;
41633;SDS011;37274;51.150;4.808;2022-07-11T06:38:31;3.55;;;2.15;;
41633;SDS011;37274;51.150;4.808;2022-07-11T06:40:58;2.95;;;2.03;;
41633;SDS011;37274;51.150;4.808;2022-07-11T06:43:25;2.28;;;1.73;;
41633;SDS011;37274;51.150;4.808;2022-07-11T06:45:53;2.55;;;2.35;;
41633;SDS011;37274;51.150;4.808;2022-07-11T06:48:20;2.72;;;2.28;;
41633;SDS011;37274;51.150;4.808;2022-07-11T06:50:47;3.13;;;1.95;;
41633;SDS011;37274;51.150;4.808;2022-07-11T06:53:14;3.63;;;1.77;;
41633;SDS011;37274;51.150;4.808;2022-07-11T06:55:41;3.22;;;1.88;;
41633;SDS011;37274;51.150;4.808;2022-07-11T06:58:08;2.42;;;2.08;;
41633;SDS011;37274;51.150;4.808;2022-07-11T07:00:50;2.88;;;2.17;;
41633;SDS011;37274;51.150;4.808;2022-07-11T07:03:17;2.80;;;2.03;;
41633;SDS011;37274;51.150;4.808;2022-07-11T07:05:46;4.35;;;1.85;;
41633;SDS011;37274;51.150;4.808;2022-07-11T07:08:16;4.03;;;1.83;;
41633;SDS011;37274;51.150;4.808;2022-07-11T07:10:43;2.17;;;1.98;;
41633;SDS011;37274;51.150;4.808;2022-07-11T07:13:10;4.07;;;2.05;;
41633;SDS011;37274;51.150;4.808;2022-07-11T07:15:37;2.38;;;2.15;;
41633;SDS011;37274;51.150;4.808;2022-07-11T07:18:04;3.42;;;2.00;;
41633;SDS011;37274;51.150;4.808;2022-07-11T07:20:30;3.58;;;2.15;;
41633;SDS011;37274;51.150;4.808;2022-07-11T07:22:57;2.47;;;1.80;;
41633;SDS011;37274;51.150;4.808;2022-07-11T07:25:25;2.20;;;1.77;;
41633;SDS011;37274;51.150;4.808;2022-07-11T07:27:52;1.98;;;1.40;;
41633;SDS011;37274;51.150;4.808;2022-07-11T07:30:19;1.85;;;1.65;;
41633;SDS011;37274;51.150;4.808;2022-07-11T07:32:45;3.70;;;1.70;;
41633;SDS011;37274;51.150;4.808;2022-07-11T07:35:12;3.83;;;2.22;;
41633;SDS011;37274;51.150;4.808;2022-07-11T07:37:39;2.25;;;2.03;;
41633;SDS011;37274;51.150;4.808;2022-07-11T07:40:06;2.30;;;2.08;;
41633;SDS011;37274;51.150;4.808;2022-07-11T07:42:33;1.73;;;1.60;;
41633;SDS011;37274;51.150;4.808;2022-07-11T07:45:00;2.95;;;2.00;;
41633;SDS011;37274;51.150;4.808;2022-07-11T07:47:27;2.50;;;1.90;;
41633;SDS011;37274;51.150;4.808;2022-07-11T07:49:56;1.73;;;1.60;;
41633;SDS011;37274;51.150;4.808;2022-07-11T07:52:22;1.60;;;1.50;;
41633;SDS011;37274;51.150;4.808;2022-07-11T07:54:49;2.67;;;1.88;;
41633;SDS011;37274;51.150;4.808;2022-07-11T07:57:16;1.65;;;1.52;;
41633;SDS011;37274;51.150;4.808;2022-07-11T07:59:43;2.58;;;2.35;;
41633;SDS011;37274;51.150;4.808;2022-07-11T08:02:09;3.38;;;2.13;;
41633;SDS011;37274;51.150;4.808;2022-07-11T08:04:37;2.60;;;1.77;;
41633;SDS011;37274;51.150;4.808;2022-07-11T08:07:04;2.83;;;1.83;;
41633;SDS011;37274;51.150;4.808;2022-07-11T08:09:40;1.85;;;1.70;;
41633;SDS011;37274;51.150;4.808;2022-07-11T08:12:06;2.38;;;1.70;;
41633;SDS011;37274;51.150;4.808;2022-07-11T08:14:33;2.08;;;1.70;;
41633;SDS011;37274;51.150;4.808;2022-07-11T08:17:01;4.13;;;1.80;;
41633;SDS011;37274;51.150;4.808;2022-07-11T08:19:28;1.58;;;1.48;;
41633;SDS011;37274;51.150;4.808;2022-07-11T08:21:56;2.15;;;1.95;;
41633;SDS011;37274;51.150;4.808;2022-07-11T08:24:23;1.95;;;1.85;;
41633;SDS011;37274;51.150;4.808;2022-07-11T08:26:50;1.70;;;1.60;;
41633;SDS011;37274;51.150;4.808;2022-07-11T08:29:16;1.92;;;1.83;;
41633;SDS011;37274;51.150;4.808;2022-07-11T08:31:43;3.38;;;2.72;;
41633;SDS011;37274;51.150;4.808;2022-07-11T08:34:10;2.20;;;1.90;;
41633;SDS011;37274;51.150;4.808;2022-07-11T08:36:41;4.65;;;3.58;;
41633;SDS011;37274;51.150;4.808;2022-07-11T08:39:08;3.53;;;3.10;;
41633;SDS011;37274;51.150;4.808;2022-07-11T08:41:36;3.95;;;2.88;;
41633;SDS011;37274;51.150;4.808;2022-07-11T08:44:08;3.55;;;3.17;;
41633;SDS011;37274;51.150;4.808;2022-07-11T08:46:37;3.63;;;3.22;;
41633;SDS011;37274;51.150;4.808;2022-07-11T08:49:10;3.33;;;2.88;;
41633;SDS011;37274;51.150;4.808;2022-07-11T08:51:46;2.45;;;2.25;;
41633;SDS011;37274;51.150;4.808;2022-07-11T08:54:13;3.05;;;2.78;;
41633;SDS011;37274;51.150;4.808;2022-07-11T08:56:41;2.90;;;2.60;;
41633;SDS011;37274;51.150;4.808;2022-07-11T08:59:10;2.80;;;2.60;;
41633;SDS011;37274;51.150;4.808;2022-07-11T09:01:44;2.83;;;2.38;;
41633;SDS011;37274;51.150;4.808;2022-07-11T09:04:11;3.20;;;2.90;;
41633;SDS011;37274;51.150;4.808;2022-07-11T09:06:40;2.55;;;2.35;;
41633;SDS011;37274;51.150;4.808;2022-07-11T09:09:07;2.92;;;2.60;;
41633;SDS011;37274;51.150;4.808;2022-07-11T09:11:49;2.42;;;2.22;;
41633;SDS011;37274;51.150;4.808;2022-07-11T09:14:23;2.50;;;2.30;;
41633;SDS011;37274;51.150;4.808;2022-07-11T09:16:55;2.60;;;2.40;;
41633;SDS011;37274;51.150;4.808;2022-07-11T09:19:23;3.97;;;2.40;;
41633;SDS011;37274;51.150;4.808;2022-07-11T09:22:00;2.88;;;2.60;;
41633;SDS011;37274;51.150;4.808;2022-07-11T09:27:52;3.15;;;2.92;;
41633;SDS011;37274;51.150;4.808;2022-07-11T09:30:38;3.70;;;3.20;;
41633;SDS011;37274;51.150;4.808;2022-07-11T09:33:06;2.53;;;2.33;;
41633;SDS011;37274;51.150;4.808;2022-07-11T09:35:40;2.85;;;2.63;;
41633;SDS011;37274;51.150;4.808;2022-07-11T09:38:09;2.53;;;2.20;;
41633;SDS011;37274;51.150;4.808;2022-07-11T09:40:38;2.22;;;2.03;;
41633;SDS011;37274;51.150;4.808;2022-07-11T09:43:05;2.60;;;2.40;;
41633;SDS011;37274;51.150;4.808;2022-07-11T09:45:32;2.50;;;2.30;;
41633;SDS011;37274;51.150;4.808;2022-07-11T09:48:00;3.30;;;3.00;;
41633;SDS011;37274;51.150;4.808;2022-07-11T09:50:29;3.17;;;2.88;;
41633;SDS011;37274;51.150;4.808;2022-07-11T09:55:28;3.00;;;2.80;;
41633;SDS011;37274;51.150;4.808;2022-07-11T09:58:16;4.55;;;3.25;;
41633;SDS011;37274;51.150;4.808;2022-07-11T10:00:44;3.20;;;2.92;;
41633;SDS011;37274;51.150;4.808;2022-07-11T10:03:11;2.45;;;2.25;;
41633;SDS011;37274;51.150;4.808;2022-07-11T10:05:59;2.83;;;2.55;;
41633;SDS011;37274;51.150;4.808;2022-07-11T10:08:26;2.78;;;2.38;;
41633;SDS011;37274;51.150;4.808;2022-07-11T10:10:52;3.92;;;2.90;;
41633;SDS011;37274;51.150;4.808;2022-07-11T10:13:19;2.90;;;2.60;;
41633;SDS011;37274;51.150;4.808;2022-07-11T10:15:46;4.43;;;2.75;;
41633;SDS011;37274;51.150;4.808;2022-07-11T10:18:33;3.42;;;3.08;;
41633;SDS011;37274;51.150;4.808;2022-07-11T10:28:48;3.47;;;2.50;;
41633;SDS011;37274;51.150;4.808;2022-07-11T10:31:20;3.08;;;2.25;;
41633;SDS011;37274;51.150;4.808;2022-07-11T10:34:07;3.38;;;3.03;;
41633;SDS011;37274;51.150;4.808;2022-07-11T10:36:43;3.40;;;3.10;;
41633;SDS011;37274;51.150;4.808;2022-07-11T10:41:51;2.83;;;2.63;;
41633;SDS011;37274;51.150;4.808;2022-07-11T10:44:18;2.78;;;2.58;;
41633;SDS011;37274;51.150;4.808;2022-07-11T10:46:44;4.22;;;2.92;;
41633;SDS011;37274;51.150;4.808;2022-07-11T11:02:22;5.85;;;3.95;;
41633;SDS011;37274;51.150;4.808;2022-07-11T11:04:51;5.38;;;3.03;;
41633;SDS011;37274;51.150;4.808;2022-07-11T11:09:57;3.65;;;2.85;;
41633;SDS011;37274;51.150;4.808;2022-07-11T11:18:29;3.20;;;2.90;;
41633;SDS011;37274;51.150;4.808;2022-07-11T11:23:39;5.03;;;3.28;;
41633;SDS011;37274;51.150;4.808;2022-07-11T11:26:19;2.95;;;2.72;;
41633;SDS011;37274;51.150;4.808;2022-07-11T11:29:04;2.83;;;2.50;;
41633;SDS011;37274;51.150;4.808;2022-07-11T11:31:32;2.75;;;2.45;;
41633;SDS011;37274;51.150;4.808;2022-07-11T11:34:03;2.47;;;2.28;;
41633;SDS011;37274;51.150;4.808;2022-07-11T11:36:30;3.60;;;2.50;;
41633;SDS011;37274;51.150;4.808;2022-07-11T11:38:58;2.97;;;2.70;;
41633;SDS011;37274;51.150;4.808;2022-07-11T11:41:30;3.72;;;2.33;;
41633;SDS011;37274;51.150;4.808;2022-07-11T11:43:58;3.08;;;2.40;;
41633;SDS011;37274;51.150;4.808;2022-07-11T11:46:32;2.33;;;1.90;;
41633;SDS011;37274;51.150;4.808;2022-07-11T11:49:03;3.00;;;2.42;;
41633;SDS011;37274;51.150;4.808;2022-07-11T11:51:31;2.63;;;2.42;;
41633;SDS011;37274;51.150;4.808;2022-07-11T11:54:10;2.88;;;2.67;;
41633;SDS011;37274;51.150;4.808;2022-07-11T11:56:37;2.65;;;2.45;;
41633;SDS011;37274;51.150;4.808;2022-07-11T11:59:09;3.22;;;2.00;;
41633;SDS011;37274;51.150;4.808;2022-07-11T12:01:43;2.42;;;1.88;;
41633;SDS011;37274;51.150;4.808;2022-07-11T12:04:14;2.90;;;2.53;;
41633;SDS011;37274;51.150;4.808;2022-07-11T12:06:43;2.22;;;2.03;;
41633;SDS011;37274;51.150;4.808;2022-07-11T12:09:13;1.80;;;1.45;;
41633;SDS011;37274;51.150;4.808;2022-07-11T12:11:45;2.10;;;1.90;;
41633;SDS011;37274;51.150;4.808;2022-07-11T12:14:14;2.97;;;1.83;;
41633;SDS011;37274;51.150;4.808;2022-07-11T12:16:44;1.77;;;1.67;;
41633;SDS011;37274;51.150;4.808;2022-07-11T12:19:20;2.90;;;2.55;;
41633;SDS011;37274;51.150;4.808;2022-07-11T12:21:52;2.50;;;1.95;;
41633;SDS011;37274;51.150;4.808;2022-07-11T12:24:20;2.20;;;1.85;;
41633;SDS011;37274;51.150;4.808;2022-07-11T12:26:54;2.00;;;1.80;;
41633;SDS011;37274;51.150;4.808;2022-07-11T12:29:22;2.83;;;2.03;;
41633;SDS011;37274;51.150;4.808;2022-07-11T12:32:00;2.10;;;2.00;;
41633;SDS011;37274;51.150;4.808;2022-07-11T12:37:07;2.40;;;2.20;;
41633;SDS011;37274;51.150;4.808;2022-07-11T12:39:35;2.33;;;2.15;;
41633;SDS011;37274;51.150;4.808;2022-07-11T12:42:26;2.80;;;2.28;;
41633;SDS011;37274;51.150;4.808;2022-07-11T12:44:55;2.15;;;2.00;;
41633;SDS011;37274;51.150;4.808;2022-07-11T12:47:36;2.60;;;2.40;;
41633;SDS011;37274;51.150;4.808;2022-07-11T12:52:43;2.80;;;2.53;;
41633;SDS011;37274;51.150;4.808;2022-07-11T12:55:22;3.13;;;1.95;;
41633;SDS011;37274;51.150;4.808;2022-07-11T12:58:22;2.10;;;2.00;;
41633;SDS011;37274;51.150;4.808;2022-07-11T13:00:55;1.70;;;1.60;;
41633;SDS011;37274;51.150;4.808;2022-07-11T13:05:58;3.22;;;2.25;;
41633;SDS011;37274;51.150;4.808;2022-07-11T13:08:37;4.50;;;2.65;;
41633;SDS011;37274;51.150;4.808;2022-07-11T13:11:17;10.23;;;2.58;;
41633;SDS011;37274;51.150;4.808;2022-07-11T13:13:48;4.90;;;2.60;;
41633;SDS011;37274;51.150;4.808;2022-07-11T13:16:16;3.35;;;2.40;;
41633;SDS011;37274;51.150;4.808;2022-07-11T13:18:44;2.92;;;2.35;;
41633;SDS011;37274;51.150;4.808;2022-07-11T13:21:13;2.50;;;2.30;;
41633;SDS011;37274;51.150;4.808;2022-07-11T13:23:40;2.33;;;2.10;;
41633;SDS011;37274;51.150;4.808;2022-07-11T13:26:07;3.20;;;2.38;;
41633;SDS011;37274;51.150;4.808;2022-07-11T13:28:35;3.35;;;3.05;;
41633;SDS011;37274;51.150;4.808;2022-07-11T13:31:02;5.18;;;2.97;;
41633;SDS011;37274;51.150;4.808;2022-07-11T13:33:41;4.93;;;2.70;;
41633;SDS011;37274;51.150;4.808;2022-07-11T13:36:08;6.53;;;3.40;;
41633;SDS011;37274;51.150;4.808;2022-07-11T13:38:35;3.17;;;2.17;;
41633;SDS011;37274;51.150;4.808;2022-07-11T13:41:02;4.15;;;2.50;;
41633;SDS011;37274;51.150;4.808;2022-07-11T13:43:29;2.70;;;2.50;;
41633;SDS011;37274;51.150;4.808;2022-07-11T13:45:56;3.47;;;3.13;;
41633;SDS011;37274;51.150;4.808;2022-07-11T13:48:23;2.83;;;2.63;;
41633;SDS011;37274;51.150;4.808;2022-07-11T13:50:50;3.10;;;2.90;;
41633;SDS011;37274;51.150;4.808;2022-07-11T13:53:17;3.03;;;2.72;;
41633;SDS011;37274;51.150;4.808;2022-07-11T13:55:44;3.72;;;2.72;;
41633;SDS011;37274;51.150;4.808;2022-07-11T13:58:11;3.40;;;3.10;;
41633;SDS011;37274;51.150;4.808;2022-07-11T14:00:56;3.28;;;2.97;;
41633;SDS011;37274;51.150;4.808;2022-07-11T14:03:23;2.88;;;2.53;;
41633;SDS011;37274;51.150;4.808;2022-07-11T14:05:53;7.28;;;3.10;;
41633;SDS011;37274;51.150;4.808;2022-07-11T14:08:20;5.22;;;2.40;;
41633;SDS011;37274;51.150;4.808;2022-07-11T14:10:47;2.42;;;2.22;;
41633;SDS011;37274;51.150;4.808;2022-07-11T14:13:14;2.45;;;2.00;;
41633;SDS011;37274;51.150;4.808;2022-07-11T14:15:41;2.10;;;1.90;;
41633;SDS011;37274;51.150;4.808;2022-07-11T14:18:08;1.80;;;1.70;;
41633;SDS011;37274;51.150;4.808;2022-07-11T14:20:35;2.70;;;1.83;;
41633;SDS011;37274;51.150;4.808;2022-07-11T14:23:02;2.80;;;1.70;;
41633;SDS011;37274;51.150;4.808;2022-07-11T14:25:29;2.50;;;1.75;;
41633;SDS011;37274;51.150;4.808;2022-07-11T14:27:56;5.25;;;1.80;;
41633;SDS011;37274;51.150;4.808;2022-07-11T14:30:23;2.97;;;1.80;;
41633;SDS011;37274;51.150;4.808;2022-07-11T14:32:50;4.32;;;1.92;;
41633;SDS011;37274;51.150;4.808;2022-07-11T14:35:17;5.97;;;2.20;;
41633;SDS011;37274;51.150;4.808;2022-07-11T14:37:44;3.50;;;2.00;;
41633;SDS011;37274;51.150;4.808;2022-07-11T14:40:11;6.10;;;2.55;;
41633;SDS011;37274;51.150;4.808;2022-07-11T14:42:38;4.07;;;2.58;;
41633;SDS011;37274;51.150;4.808;2022-07-11T14:45:08;3.88;;;1.98;;
41633;SDS011;37274;51.150;4.808;2022-07-11T14:47:36;3.00;;;2.05;;
41633;SDS011;37274;51.150;4.808;2022-07-11T14:50:03;3.55;;;2.03;;
41633;SDS011;37274;51.150;4.808;2022-07-11T14:52:30;5.38;;;1.80;;
41633;SDS011;37274;51.150;4.808;2022-07-11T14:54:57;5.43;;;2.17;;
41633;SDS011;37274;51.150;4.808;2022-07-11T14:57:25;3.20;;;1.75;;
41633;SDS011;37274;51.150;4.808;2022-07-11T14:59:52;3.72;;;2.28;;
41633;SDS011;37274;51.150;4.808;2022-07-11T15:02:19;2.30;;;2.03;;
41633;SDS011;37274;51.150;4.808;2022-07-11T15:05:06;5.85;;;1.77;;
41633;SDS011;37274;51.150;4.808;2022-07-11T15:07:34;2.85;;;1.90;;
41633;SDS011;37274;51.150;4.808;2022-07-11T15:10:19;5.90;;;2.20;;
41633;SDS011;37274;51.150;4.808;2022-07-11T15:13:14;4.30;;;1.70;;
41633;SDS011;37274;51.150;4.808;2022-07-11T15:15:42;4.75;;;2.25;;
41633;SDS011;37274;51.150;4.808;2022-07-11T15:18:09;7.60;;;2.20;;
41633;SDS011;37274;51.150;4.808;2022-07-11T15:20:36;4.97;;;1.90;;
41633;SDS011;37274;51.150;4.808;2022-07-11T15:23:02;2.55;;;1.58;;
41633;SDS011;37274;51.150;4.808;2022-07-11T15:25:29;3.33;;;1.90;;
41633;SDS011;37274;51.150;4.808;2022-07-11T15:27:56;16.77;;;3.22;;
41633;SDS011;37274;51.150;4.808;2022-07-11T15:30:23;11.30;;;2.75;;
41633;SDS011;37274;51.150;4.808;2022-07-11T15:32:50;9.73;;;3.22;;
41633;SDS011;37274;51.150;4.808;2022-07-11T15:35:17;11.18;;;3.10;;
41633;SDS011;37274;51.150;4.808;2022-07-11T15:37:44;32.88;;;4.93;;
41633;SDS011;37274;51.150;4.808;2022-07-11T15:40:11;39.05;;;4.82;;
41633;SDS011;37274;51.150;4.808;2022-07-11T15:42:38;31.92;;;4.68;;
41633;SDS011;37274;51.150;4.808;2022-07-11T15:45:05;27.55;;;4.75;;